aviador You're here:

KORH Decoded Metar

WORCESTER in MA, USA
Report Time2017-04-25 05:54:00
UTC Time2017-04-25 06:31:40
Flight Rules vfr VFR
Wind070° at 06 kt
W.Decomp.*RWY 11: 5.4 kt HW 2.5 kt LCW
RWY 15: 2.5 kt HW 5.4 kt LCW
W.Rank070° ranks 23
Current wind is below 070° avg. (6.3)
Visibility9999 m
Phenomena:N/A
Clouds:Overcast 100 Hf
Expected CloudBase > 3,200 ft AGL from Temp-Dew spread
Ceiling10,000 ft
Temp10°C (ISA -3)
Dew Point02°C (58% RH)
AAT6.2°C
QNH1023 hPa
Density Alt400 ft
Elevation997 ft
Report Wrong Elevation
Raw Report
KORH 250554Z AUTO 07006KT 10SM OVC100 10/02 A3020=

Extra information for KORH:More info

Metar Taf Metar & Taf Last 4 Metars F.Rules Stats Wind Profile Meteogram Temp Stats Airport Information Weather charts Add Link Nearby VenuesMetar ALERT Operation Metar Decoded Social comments

AIRNAV info for KORH